sensor_id;sensor_type;location;lat;lon;timestamp;P1;durP1;ratioP1;P2;durP2;ratioP2
76256;SDS011;65074;50.436;8.672;2022-11-15T00:01:47;13.35;;;7.47;;
76256;SDS011;65074;50.436;8.672;2022-11-15T00:04:31;12.55;;;7.32;;
76256;SDS011;65074;50.436;8.672;2022-11-15T00:07:15;12.35;;;7.38;;
76256;SDS011;65074;50.436;8.672;2022-11-15T00:10:02;14.95;;;7.85;;
76256;SDS011;65074;50.436;8.672;2022-11-15T00:12:47;12.27;;;7.85;;
76256;SDS011;65074;50.436;8.672;2022-11-15T00:15:32;14.10;;;8.07;;
76256;SDS011;65074;50.436;8.672;2022-11-15T00:18:18;12.15;;;7.05;;
76256;SDS011;65074;50.436;8.672;2022-11-15T00:21:03;12.82;;;7.43;;
76256;SDS011;65074;50.436;8.672;2022-11-15T00:23:49;11.43;;;6.93;;
76256;SDS011;65074;50.436;8.672;2022-11-15T00:26:33;14.52;;;7.38;;
76256;SDS011;65074;50.436;8.672;2022-11-15T00:29:17;11.13;;;6.80;;
76256;SDS011;65074;50.436;8.672;2022-11-15T00:32:01;11.45;;;7.93;;
76256;SDS011;65074;50.436;8.672;2022-11-15T00:34:44;10.52;;;6.93;;
76256;SDS011;65074;50.436;8.672;2022-11-15T00:37:31;10.07;;;6.68;;
76256;SDS011;65074;50.436;8.672;2022-11-15T00:40:15;12.90;;;6.45;;
76256;SDS011;65074;50.436;8.672;2022-11-15T00:42:59;12.10;;;6.72;;
76256;SDS011;65074;50.436;8.672;2022-11-15T00:45:43;10.90;;;6.40;;
76256;SDS011;65074;50.436;8.672;2022-11-15T00:48:27;13.32;;;6.68;;
76256;SDS011;65074;50.436;8.672;2022-11-15T00:51:12;11.93;;;6.65;;
76256;SDS011;65074;50.436;8.672;2022-11-15T00:53:55;16.17;;;6.40;;
76256;SDS011;65074;50.436;8.672;2022-11-15T00:56:39;8.77;;;5.65;;
76256;SDS011;65074;50.436;8.672;2022-11-15T00:59:23;13.40;;;6.63;;
76256;SDS011;65074;50.436;8.672;2022-11-15T01:02:07;10.98;;;6.03;;
76256;SDS011;65074;50.436;8.672;2022-11-15T01:04:51;8.65;;;6.07;;
76256;SDS011;65074;50.436;8.672;2022-11-15T01:07:35;11.52;;;5.90;;
76256;SDS011;65074;50.436;8.672;2022-11-15T01:10:19;9.98;;;5.10;;
76256;SDS011;65074;50.436;8.672;2022-11-15T01:13:03;10.77;;;5.57;;
76256;SDS011;65074;50.436;8.672;2022-11-15T01:15:47;11.07;;;6.03;;
76256;SDS011;65074;50.436;8.672;2022-11-15T01:18:31;8.65;;;5.18;;
76256;SDS011;65074;50.436;8.672;2022-11-15T01:21:17;10.93;;;6.32;;
76256;SDS011;65074;50.436;8.672;2022-11-15T01:24:02;10.35;;;5.78;;
76256;SDS011;65074;50.436;8.672;2022-11-15T01:26:45;8.48;;;4.78;;
76256;SDS011;65074;50.436;8.672;2022-11-15T01:29:29;9.00;;;4.70;;
76256;SDS011;65074;50.436;8.672;2022-11-15T01:32:13;8.48;;;5.30;;
76256;SDS011;65074;50.436;8.672;2022-11-15T01:34:57;9.65;;;4.60;;
76256;SDS011;65074;50.436;8.672;2022-11-15T01:37:41;10.02;;;6.05;;
76256;SDS011;65074;50.436;8.672;2022-11-15T01:40:25;9.93;;;4.28;;
76256;SDS011;65074;50.436;8.672;2022-11-15T01:43:25;7.63;;;4.55;;
76256;SDS011;65074;50.436;8.672;2022-11-15T01:49:18;8.68;;;5.10;;
76256;SDS011;65074;50.436;8.672;2022-11-15T01:52:06;8.45;;;5.10;;
76256;SDS011;65074;50.436;8.672;2022-11-15T01:54:55;8.23;;;4.68;;
76256;SDS011;65074;50.436;8.672;2022-11-15T01:58:02;8.77;;;5.47;;
76256;SDS011;65074;50.436;8.672;2022-11-15T02:03:52;9.55;;;5.50;;
76256;SDS011;65074;50.436;8.672;2022-11-15T02:06:41;8.23;;;5.20;;
76256;SDS011;65074;50.436;8.672;2022-11-15T02:09:26;10.02;;;5.60;;
76256;SDS011;65074;50.436;8.672;2022-11-15T02:12:10;11.32;;;4.95;;
76256;SDS011;65074;50.436;8.672;2022-11-15T02:14:59;8.38;;;5.63;;
76256;SDS011;65074;50.436;8.672;2022-11-15T02:17:50;7.80;;;4.93;;
76256;SDS011;65074;50.436;8.672;2022-11-15T02:32:25;9.02;;;5.35;;
76256;SDS011;65074;50.436;8.672;2022-11-15T02:38:47;10.88;;;4.80;;
76256;SDS011;65074;50.436;8.672;2022-11-15T02:41:55;9.48;;;5.15;;
76256;SDS011;65074;50.436;8.672;2022-11-15T02:44:44;9.50;;;4.88;;
76256;SDS011;65074;50.436;8.672;2022-11-15T02:47:30;10.13;;;5.40;;
76256;SDS011;65074;50.436;8.672;2022-11-15T02:50:19;8.45;;;5.38;;
76256;SDS011;65074;50.436;8.672;2022-11-15T02:53:05;7.15;;;4.90;;
76256;SDS011;65074;50.436;8.672;2022-11-15T02:55:51;8.85;;;5.13;;
76256;SDS011;65074;50.436;8.672;2022-11-15T03:17:13;7.95;;;4.35;;
76256;SDS011;65074;50.436;8.672;2022-11-15T03:20:03;7.22;;;3.88;;
76256;SDS011;65074;50.436;8.672;2022-11-15T03:22:49;8.13;;;4.60;;
76256;SDS011;65074;50.436;8.672;2022-11-15T03:25:35;7.78;;;4.03;;
76256;SDS011;65074;50.436;8.672;2022-11-15T03:28:25;5.55;;;4.20;;
76256;SDS011;65074;50.436;8.672;2022-11-15T03:31:16;6.95;;;4.40;;
76256;SDS011;65074;50.436;8.672;2022-11-15T03:34:29;7.05;;;4.40;;
76256;SDS011;65074;50.436;8.672;2022-11-15T03:37:19;7.40;;;4.55;;
76256;SDS011;65074;50.436;8.672;2022-11-15T03:40:06;8.02;;;4.43;;
76256;SDS011;65074;50.436;8.672;2022-11-15T03:46:22;7.70;;;5.60;;
76256;SDS011;65074;50.436;8.672;2022-11-15T03:49:10;12.77;;;6.35;;
76256;SDS011;65074;50.436;8.672;2022-11-15T03:52:02;10.10;;;5.97;;
76256;SDS011;65074;50.436;8.672;2022-11-15T03:54:49;8.27;;;5.22;;
76256;SDS011;65074;50.436;8.672;2022-11-15T03:57:37;9.98;;;4.97;;
76256;SDS011;65074;50.436;8.672;2022-11-15T04:00:21;7.57;;;4.63;;
76256;SDS011;65074;50.436;8.672;2022-11-15T04:03:05;9.80;;;4.95;;
76256;SDS011;65074;50.436;8.672;2022-11-15T04:05:50;10.60;;;5.47;;
76256;SDS011;65074;50.436;8.672;2022-11-15T04:08:34;8.27;;;4.82;;
76256;SDS011;65074;50.436;8.672;2022-11-15T04:11:18;8.10;;;4.30;;
76256;SDS011;65074;50.436;8.672;2022-11-15T04:14:02;8.45;;;4.18;;
76256;SDS011;65074;50.436;8.672;2022-11-15T04:16:46;8.30;;;4.15;;
76256;SDS011;65074;50.436;8.672;2022-11-15T04:19:30;8.90;;;4.22;;
76256;SDS011;65074;50.436;8.672;2022-11-15T04:22:32;8.38;;;4.15;;
76256;SDS011;65074;50.436;8.672;2022-11-15T04:25:35;5.93;;;4.25;;
76256;SDS011;65074;50.436;8.672;2022-11-15T04:28:19;8.10;;;4.45;;
76256;SDS011;65074;50.436;8.672;2022-11-15T04:31:03;8.80;;;4.63;;
76256;SDS011;65074;50.436;8.672;2022-11-15T04:33:47;7.85;;;4.55;;
76256;SDS011;65074;50.436;8.672;2022-11-15T04:36:31;6.40;;;4.63;;
76256;SDS011;65074;50.436;8.672;2022-11-15T04:39:34;7.25;;;4.80;;
76256;SDS011;65074;50.436;8.672;2022-11-15T04:42:18;8.20;;;4.30;;
76256;SDS011;65074;50.436;8.672;2022-11-15T04:45:02;6.30;;;4.53;;
76256;SDS011;65074;50.436;8.672;2022-11-15T04:47:46;8.32;;;4.95;;
76256;SDS011;65074;50.436;8.672;2022-11-15T04:50:30;9.45;;;5.10;;
76256;SDS011;65074;50.436;8.672;2022-11-15T04:53:14;10.60;;;5.05;;
76256;SDS011;65074;50.436;8.672;2022-11-15T04:55:58;9.23;;;5.47;;
76256;SDS011;65074;50.436;8.672;2022-11-15T04:58:42;8.73;;;5.30;;
76256;SDS011;65074;50.436;8.672;2022-11-15T05:01:26;8.18;;;4.72;;
76256;SDS011;65074;50.436;8.672;2022-11-15T05:04:10;8.05;;;5.28;;
76256;SDS011;65074;50.436;8.672;2022-11-15T05:07:03;11.55;;;5.78;;
76256;SDS011;65074;50.436;8.672;2022-11-15T05:09:50;9.10;;;4.97;;
76256;SDS011;65074;50.436;8.672;2022-11-15T05:12:34;9.85;;;4.90;;
76256;SDS011;65074;50.436;8.672;2022-11-15T05:15:21;8.95;;;5.65;;
76256;SDS011;65074;50.436;8.672;2022-11-15T05:18:05;9.45;;;5.63;;
76256;SDS011;65074;50.436;8.672;2022-11-15T05:20:49;8.27;;;5.40;;
76256;SDS011;65074;50.436;8.672;2022-11-15T05:23:33;9.35;;;5.88;;
76256;SDS011;65074;50.436;8.672;2022-11-15T05:26:17;9.30;;;5.50;;
76256;SDS011;65074;50.436;8.672;2022-11-15T05:29:01;7.35;;;5.20;;
76256;SDS011;65074;50.436;8.672;2022-11-15T05:31:46;10.68;;;6.43;;
76256;SDS011;65074;50.436;8.672;2022-11-15T05:34:30;9.18;;;5.40;;
76256;SDS011;65074;50.436;8.672;2022-11-15T05:37:14;10.15;;;5.88;;
76256;SDS011;65074;50.436;8.672;2022-11-15T05:39:59;11.75;;;5.60;;
76256;SDS011;65074;50.436;8.672;2022-11-15T05:42:46;11.82;;;6.00;;
76256;SDS011;65074;50.436;8.672;2022-11-15T05:48:16;9.65;;;5.38;;
76256;SDS011;65074;50.436;8.672;2022-11-15T05:51:01;10.98;;;5.90;;
76256;SDS011;65074;50.436;8.672;2022-11-15T05:53:47;11.15;;;6.90;;
76256;SDS011;65074;50.436;8.672;2022-11-15T05:56:32;10.95;;;7.03;;
76256;SDS011;65074;50.436;8.672;2022-11-15T05:59:16;13.82;;;6.50;;
76256;SDS011;65074;50.436;8.672;2022-11-15T06:02:04;14.68;;;7.43;;
76256;SDS011;65074;50.436;8.672;2022-11-15T06:04:48;13.75;;;7.10;;
76256;SDS011;65074;50.436;8.672;2022-11-15T06:07:32;13.10;;;7.75;;
76256;SDS011;65074;50.436;8.672;2022-11-15T06:10:16;15.52;;;7.57;;
76256;SDS011;65074;50.436;8.672;2022-11-15T06:13:01;12.02;;;7.38;;
76256;SDS011;65074;50.436;8.672;2022-11-15T06:15:46;12.27;;;7.07;;
76256;SDS011;65074;50.436;8.672;2022-11-15T06:18:33;15.82;;;7.05;;
76256;SDS011;65074;50.436;8.672;2022-11-15T06:21:20;12.93;;;6.00;;
76256;SDS011;65074;50.436;8.672;2022-11-15T06:24:04;11.07;;;6.40;;
76256;SDS011;65074;50.436;8.672;2022-11-15T06:26:52;11.70;;;6.78;;
76256;SDS011;65074;50.436;8.672;2022-11-15T06:29:36;12.52;;;6.97;;
76256;SDS011;65074;50.436;8.672;2022-11-15T06:32:20;11.85;;;7.32;;
76256;SDS011;65074;50.436;8.672;2022-11-15T06:35:04;11.15;;;6.68;;
76256;SDS011;65074;50.436;8.672;2022-11-15T06:37:48;15.77;;;6.78;;
76256;SDS011;65074;50.436;8.672;2022-11-15T06:40:33;10.70;;;5.97;;
76256;SDS011;65074;50.436;8.672;2022-11-15T06:43:18;9.27;;;5.70;;
76256;SDS011;65074;50.436;8.672;2022-11-15T06:46:03;11.95;;;5.50;;
76256;SDS011;65074;50.436;8.672;2022-11-15T06:48:50;10.02;;;6.80;;
76256;SDS011;65074;50.436;8.672;2022-11-15T06:51:35;8.32;;;5.57;;
76256;SDS011;65074;50.436;8.672;2022-11-15T06:54:19;10.43;;;6.15;;
76256;SDS011;65074;50.436;8.672;2022-11-15T06:57:04;12.70;;;6.38;;
76256;SDS011;65074;50.436;8.672;2022-11-15T06:59:48;11.77;;;5.85;;
76256;SDS011;65074;50.436;8.672;2022-11-15T07:02:32;12.60;;;6.80;;
76256;SDS011;65074;50.436;8.672;2022-11-15T07:05:16;9.15;;;7.53;;
76256;SDS011;65074;50.436;8.672;2022-11-15T07:08:00;10.18;;;6.50;;
76256;SDS011;65074;50.436;8.672;2022-11-15T07:10:44;10.63;;;7.97;;
76256;SDS011;65074;50.436;8.672;2022-11-15T07:13:28;9.50;;;7.30;;
76256;SDS011;65074;50.436;8.672;2022-11-15T07:16:16;9.48;;;5.38;;
76256;SDS011;65074;50.436;8.672;2022-11-15T07:19:03;8.27;;;5.63;;
76256;SDS011;65074;50.436;8.672;2022-11-15T07:21:47;7.78;;;5.05;;
76256;SDS011;65074;50.436;8.672;2022-11-15T07:24:31;8.35;;;4.95;;
76256;SDS011;65074;50.436;8.672;2022-11-15T07:27:15;9.75;;;5.93;;
76256;SDS011;65074;50.436;8.672;2022-11-15T07:30:02;12.35;;;7.43;;
76256;SDS011;65074;50.436;8.672;2022-11-15T07:32:47;11.93;;;6.93;;
76256;SDS011;65074;50.436;8.672;2022-11-15T07:35:31;10.40;;;6.90;;
76256;SDS011;65074;50.436;8.672;2022-11-15T07:38:17;13.10;;;7.82;;
76256;SDS011;65074;50.436;8.672;2022-11-15T07:41:03;14.57;;;7.68;;
76256;SDS011;65074;50.436;8.672;2022-11-15T07:43:50;10.80;;;6.90;;
76256;SDS011;65074;50.436;8.672;2022-11-15T07:46:37;10.57;;;6.53;;
76256;SDS011;65074;50.436;8.672;2022-11-15T07:49:21;11.50;;;6.63;;
76256;SDS011;65074;50.436;8.672;2022-11-15T07:52:05;9.43;;;5.88;;
76256;SDS011;65074;50.436;8.672;2022-11-15T07:54:49;9.60;;;5.55;;
76256;SDS011;65074;50.436;8.672;2022-11-15T07:57:33;8.70;;;5.63;;
76256;SDS011;65074;50.436;8.672;2022-11-15T08:00:17;11.43;;;5.93;;
76256;SDS011;65074;50.436;8.672;2022-11-15T08:03:05;9.88;;;5.82;;
76256;SDS011;65074;50.436;8.672;2022-11-15T08:05:50;9.65;;;5.68;;
76256;SDS011;65074;50.436;8.672;2022-11-15T08:08:35;10.18;;;5.55;;
76256;SDS011;65074;50.436;8.672;2022-11-15T08:11:21;11.68;;;6.40;;
76256;SDS011;65074;50.436;8.672;2022-11-15T08:14:05;9.98;;;5.88;;
76256;SDS011;65074;50.436;8.672;2022-11-15T08:16:49;12.15;;;5.88;;
76256;SDS011;65074;50.436;8.672;2022-11-15T08:19:33;9.48;;;6.03;;
76256;SDS011;65074;50.436;8.672;2022-11-15T08:22:17;12.15;;;6.32;;
76256;SDS011;65074;50.436;8.672;2022-11-15T08:25:01;11.60;;;6.00;;
76256;SDS011;65074;50.436;8.672;2022-11-15T08:27:50;10.95;;;6.70;;
76256;SDS011;65074;50.436;8.672;2022-11-15T08:30:36;11.95;;;6.57;;
76256;SDS011;65074;50.436;8.672;2022-11-15T08:33:21;10.50;;;5.80;;
76256;SDS011;65074;50.436;8.672;2022-11-15T08:36:10;8.82;;;6.22;;
76256;SDS011;65074;50.436;8.672;2022-11-15T08:38:57;8.68;;;5.90;;
76256;SDS011;65074;50.436;8.672;2022-11-15T08:41:41;7.38;;;5.05;;
76256;SDS011;65074;50.436;8.672;2022-11-15T08:44:25;8.68;;;5.70;;
76256;SDS011;65074;50.436;8.672;2022-11-15T08:47:12;12.90;;;5.68;;
76256;SDS011;65074;50.436;8.672;2022-11-15T08:49:57;9.52;;;6.55;;
76256;SDS011;65074;50.436;8.672;2022-11-15T08:52:41;7.88;;;5.68;;
76256;SDS011;65074;50.436;8.672;2022-11-15T08:55:28;7.68;;;5.53;;
76256;SDS011;65074;50.436;8.672;2022-11-15T08:58:12;9.05;;;5.90;;
76256;SDS011;65074;50.436;8.672;2022-11-15T09:00:56;9.35;;;5.80;;
76256;SDS011;65074;50.436;8.672;2022-11-15T09:03:40;8.52;;;6.07;;
76256;SDS011;65074;50.436;8.672;2022-11-15T09:06:24;12.48;;;6.80;;
76256;SDS011;65074;50.436;8.672;2022-11-15T09:09:08;8.77;;;5.68;;
76256;SDS011;65074;50.436;8.672;2022-11-15T09:11:52;8.32;;;5.68;;
76256;SDS011;65074;50.436;8.672;2022-11-15T09:14:36;8.32;;;6.07;;
76256;SDS011;65074;50.436;8.672;2022-11-15T09:17:20;8.65;;;5.72;;
76256;SDS011;65074;50.436;8.672;2022-11-15T09:20:04;9.60;;;6.15;;
76256;SDS011;65074;50.436;8.672;2022-11-15T09:22:48;8.70;;;6.15;;
76256;SDS011;65074;50.436;8.672;2022-11-15T09:25:32;10.43;;;6.18;;
76256;SDS011;65074;50.436;8.672;2022-11-15T09:28:16;8.48;;;5.85;;
76256;SDS011;65074;50.436;8.672;2022-11-15T09:31:01;9.98;;;5.60;;
76256;SDS011;65074;50.436;8.672;2022-11-15T09:33:47;11.30;;;6.50;;
76256;SDS011;65074;50.436;8.672;2022-11-15T09:36:31;11.07;;;6.07;;
76256;SDS011;65074;50.436;8.672;2022-11-15T09:39:15;13.35;;;6.57;;
76256;SDS011;65074;50.436;8.672;2022-11-15T09:45:02;10.70;;;5.95;;
76256;SDS011;65074;50.436;8.672;2022-11-15T09:48:04;9.77;;;6.13;;
76256;SDS011;65074;50.436;8.672;2022-11-15T09:50:58;10.27;;;6.10;;
76256;SDS011;65074;50.436;8.672;2022-11-15T09:55:58;7.97;;;5.38;;
76256;SDS011;65074;50.436;8.672;2022-11-15T10:04:13;8.27;;;5.43;;
76256;SDS011;65074;50.436;8.672;2022-11-15T10:06:40;10.55;;;6.93;;
76256;SDS011;65074;50.436;8.672;2022-11-15T10:09:47;8.52;;;5.57;;
76256;SDS011;65074;50.436;8.672;2022-11-15T10:12:18;8.13;;;5.18;;
76256;SDS011;65074;50.436;8.672;2022-11-15T10:14:43;7.85;;;5.45;;
76256;SDS011;65074;50.436;8.672;2022-11-15T10:17:24;11.88;;;5.30;;
76256;SDS011;65074;50.436;8.672;2022-11-15T10:22:45;7.82;;;5.15;;
76256;SDS011;65074;50.436;8.672;2022-11-15T10:27:42;7.68;;;5.13;;
76256;SDS011;65074;50.436;8.672;2022-11-15T10:30:10;9.25;;;5.65;;
76256;SDS011;65074;50.436;8.672;2022-11-15T10:32:38;9.30;;;5.80;;
76256;SDS011;65074;50.436;8.672;2022-11-15T10:37:43;8.50;;;5.53;;
76256;SDS011;65074;50.436;8.672;2022-11-15T10:40:41;8.82;;;6.30;;
76256;SDS011;65074;50.436;8.672;2022-11-15T10:43:18;10.45;;;6.22;;
76256;SDS011;65074;50.436;8.672;2022-11-15T10:45:51;9.70;;;5.90;;
76256;SDS011;65074;50.436;8.672;2022-11-15T10:50:44;9.33;;;5.10;;
76256;SDS011;65074;50.436;8.672;2022-11-15T10:53:21;8.93;;;6.18;;
76256;SDS011;65074;50.436;8.672;2022-11-15T10:55:58;9.75;;;5.43;;
76256;SDS011;65074;50.436;8.672;2022-11-15T10:58:40;8.50;;;5.55;;
76256;SDS011;65074;50.436;8.672;2022-11-15T11:01:12;7.85;;;5.38;;
76256;SDS011;65074;50.436;8.672;2022-11-15T11:03:44;8.25;;;5.05;;
76256;SDS011;65074;50.436;8.672;2022-11-15T11:06:22;6.65;;;4.90;;
76256;SDS011;65074;50.436;8.672;2022-11-15T11:09:00;7.57;;;4.85;;
76256;SDS011;65074;50.436;8.672;2022-11-15T11:11:47;6.10;;;3.80;;
76256;SDS011;65074;50.436;8.672;2022-11-15T11:14:20;4.35;;;3.20;;
76256;SDS011;65074;50.436;8.672;2022-11-15T11:16:50;4.28;;;3.25;;
76256;SDS011;65074;50.436;8.672;2022-11-15T11:19:31;4.57;;;2.58;;
76256;SDS011;65074;50.436;8.672;2022-11-15T11:27:47;6.13;;;4.60;;
76256;SDS011;65074;50.436;8.672;2022-11-15T11:33:30;11.18;;;5.53;;
76256;SDS011;65074;50.436;8.672;2022-11-15T11:36:10;9.02;;;5.53;;
76256;SDS011;65074;50.436;8.672;2022-11-15T11:47:31;7.00;;;5.18;;
76256;SDS011;65074;50.436;8.672;2022-11-15T11:50:02;10.50;;;6.10;;
76256;SDS011;65074;50.436;8.672;2022-11-15T11:52:42;10.57;;;6.35;;
76256;SDS011;65074;50.436;8.672;2022-11-15T11:58:43;8.35;;;5.65;;
76256;SDS011;65074;50.436;8.672;2022-11-15T12:00:55;8.02;;;5.95;;
76256;SDS011;65074;50.436;8.672;2022-11-15T12:06:25;9.45;;;5.75;;
76256;SDS011;65074;50.436;8.672;2022-11-15T12:14:44;9.18;;;5.45;;
76256;SDS011;65074;50.436;8.672;2022-11-15T12:17:13;7.72;;;5.38;;
76256;SDS011;65074;50.436;8.672;2022-11-15T12:19:41;7.00;;;5.72;;
76256;SDS011;65074;50.436;8.672;2022-11-15T12:25:00;9.43;;;5.80;;
76256;SDS011;65074;50.436;8.672;2022-11-15T12:27:44;10.25;;;6.50;;
76256;SDS011;65074;50.436;8.672;2022-11-15T12:30:19;8.98;;;5.35;;
76256;SDS011;65074;50.436;8.672;2022-11-15T12:32:57;8.50;;;6.00;;
76256;SDS011;65074;50.436;8.672;2022-11-15T12:35:27;10.68;;;5.85;;
76256;SDS011;65074;50.436;8.672;2022-11-15T12:37:58;10.18;;;6.43;;
76256;SDS011;65074;50.436;8.672;2022-11-15T12:40:28;9.82;;;5.80;;
76256;SDS011;65074;50.436;8.672;2022-11-15T12:42:57;11.73;;;5.88;;
76256;SDS011;65074;50.436;8.672;2022-11-15T12:53:26;9.40;;;5.95;;
76256;SDS011;65074;50.436;8.672;2022-11-15T13:04:21;10.35;;;5.68;;
76256;SDS011;65074;50.436;8.672;2022-11-15T13:12:01;9.38;;;5.68;;
76256;SDS011;65074;50.436;8.672;2022-11-15T13:17:37;8.68;;;5.38;;
76256;SDS011;65074;50.436;8.672;2022-11-15T13:22:51;8.27;;;4.85;;
76256;SDS011;65074;50.436;8.672;2022-11-15T13:28:22;7.93;;;4.65;;
76256;SDS011;65074;50.436;8.672;2022-11-15T13:30:56;6.47;;;4.05;;
76256;SDS011;65074;50.436;8.672;2022-11-15T13:35:57;7.88;;;4.70;;
76256;SDS011;65074;50.436;8.672;2022-11-15T13:38:30;6.38;;;4.20;;
76256;SDS011;65074;50.436;8.672;2022-11-15T13:40:58;6.53;;;4.32;;
76256;SDS011;65074;50.436;8.672;2022-11-15T13:48:37;5.93;;;4.82;;
76256;SDS011;65074;50.436;8.672;2022-11-15T13:51:07;7.28;;;4.38;;
76256;SDS011;65074;50.436;8.672;2022-11-15T13:53:59;6.85;;;4.80;;
76256;SDS011;65074;50.436;8.672;2022-11-15T13:56:33;6.35;;;3.88;;
76256;SDS011;65074;50.436;8.672;2022-11-15T13:59:00;6.90;;;3.67;;
76256;SDS011;65074;50.436;8.672;2022-11-15T14:01:33;5.78;;;3.60;;
76256;SDS011;65074;50.436;8.672;2022-11-15T14:03:59;6.43;;;3.72;;
76256;SDS011;65074;50.436;8.672;2022-11-15T14:06:27;6.90;;;4.18;;
76256;SDS011;65074;50.436;8.672;2022-11-15T14:08:59;5.60;;;3.90;;
76256;SDS011;65074;50.436;8.672;2022-11-15T14:11:28;6.85;;;4.18;;
76256;SDS011;65074;50.436;8.672;2022-11-15T14:16:47;6.05;;;4.03;;
76256;SDS011;65074;50.436;8.672;2022-11-15T14:24:33;8.52;;;4.38;;
76256;SDS011;65074;50.436;8.672;2022-11-15T14:29:51;9.40;;;4.20;;
76256;SDS011;65074;50.436;8.672;2022-11-15T14:34:47;7.20;;;4.05;;
76256;SDS011;65074;50.436;8.672;2022-11-15T14:37:39;5.45;;;3.78;;
76256;SDS011;65074;50.436;8.672;2022-11-15T14:40:04;6.00;;;4.35;;
76256;SDS011;65074;50.436;8.672;2022-11-15T14:42:31;6.20;;;3.97;;
76256;SDS011;65074;50.436;8.672;2022-11-15T14:44:56;5.05;;;3.75;;
76256;SDS011;65074;50.436;8.672;2022-11-15T14:47:22;7.88;;;4.30;;
76256;SDS011;65074;50.436;8.672;2022-11-15T14:49:48;6.25;;;4.13;;
76256;SDS011;65074;50.436;8.672;2022-11-15T14:54:44;5.30;;;3.85;;
76256;SDS011;65074;50.436;8.672;2022-11-15T14:57:10;8.98;;;4.13;;
76256;SDS011;65074;50.436;8.672;2022-11-15T14:59:35;6.82;;;4.63;;
76256;SDS011;65074;50.436;8.672;2022-11-15T15:02:00;7.47;;;4.10;;
76256;SDS011;65074;50.436;8.672;2022-11-15T15:04:26;6.30;;;4.25;;
76256;SDS011;65074;50.436;8.672;2022-11-15T15:06:51;7.20;;;5.00;;
76256;SDS011;65074;50.436;8.672;2022-11-15T15:09:16;8.77;;;5.10;;
76256;SDS011;65074;50.436;8.672;2022-11-15T15:11:42;10.40;;;5.60;;
76256;SDS011;65074;50.436;8.672;2022-11-15T15:14:07;7.63;;;4.47;;
76256;SDS011;65074;50.436;8.672;2022-11-15T15:16:33;7.72;;;4.32;;
76256;SDS011;65074;50.436;8.672;2022-11-15T15:18:58;7.30;;;4.65;;
76256;SDS011;65074;50.436;8.672;2022-11-15T15:21:25;7.40;;;4.40;;
76256;SDS011;65074;50.436;8.672;2022-11-15T15:23:56;10.55;;;5.55;;
76256;SDS011;65074;50.436;8.672;2022-11-15T15:26:22;7.80;;;4.63;;
76256;SDS011;65074;50.436;8.672;2022-11-15T15:28:48;7.93;;;4.80;;
76256;SDS011;65074;50.436;8.672;2022-11-15T15:31:16;8.73;;;5.40;;
76256;SDS011;65074;50.436;8.672;2022-11-15T15:33:41;6.80;;;4.90;;
76256;SDS011;65074;50.436;8.672;2022-11-15T15:36:13;11.57;;;5.55;;
76256;SDS011;65074;50.436;8.672;2022-11-15T15:38:41;9.32;;;5.40;;
76256;SDS011;65074;50.436;8.672;2022-11-15T15:41:10;8.73;;;5.30;;
76256;SDS011;65074;50.436;8.672;2022-11-15T15:43:36;7.90;;;5.18;;
76256;SDS011;65074;50.436;8.672;2022-11-15T15:46:07;8.35;;;5.50;;
76256;SDS011;65074;50.436;8.672;2022-11-15T15:48:35;7.18;;;4.53;;
76256;SDS011;65074;50.436;8.672;2022-11-15T15:51:02;6.75;;;4.82;;
76256;SDS011;65074;50.436;8.672;2022-11-15T15:53:27;7.32;;;4.90;;
76256;SDS011;65074;50.436;8.672;2022-11-15T15:55:52;8.52;;;4.68;;
76256;SDS011;65074;50.436;8.672;2022-11-15T15:58:21;6.57;;;4.60;;
76256;SDS011;65074;50.436;8.672;2022-11-15T16:00:46;7.60;;;4.68;;
76256;SDS011;65074;50.436;8.672;2022-11-15T16:03:12;6.80;;;4.80;;
76256;SDS011;65074;50.436;8.672;2022-11-15T16:05:37;7.50;;;5.35;;
76256;SDS011;65074;50.436;8.672;2022-11-15T16:08:03;10.48;;;5.28;;
76256;SDS011;65074;50.436;8.672;2022-11-15T16:10:29;11.98;;;6.25;;
76256;SDS011;65074;50.436;8.672;2022-11-15T16:13:01;10.85;;;6.15;;
76256;SDS011;65074;50.436;8.672;2022-11-15T16:15:29;14.93;;;6.88;;
76256;SDS011;65074;50.436;8.672;2022-11-15T16:17:56;13.40;;;6.70;;
76256;SDS011;65074;50.436;8.672;2022-11-15T16:20:26;15.13;;;7.55;;
76256;SDS011;65074;50.436;8.672;2022-11-15T16:22:57;10.20;;;6.25;;
76256;SDS011;65074;50.436;8.672;2022-11-15T16:25:23;7.55;;;4.97;;
76256;SDS011;65074;50.436;8.672;2022-11-15T16:27:49;7.15;;;4.97;;
76256;SDS011;65074;50.436;8.672;2022-11-15T16:30:17;9.18;;;6.28;;
76256;SDS011;65074;50.436;8.672;2022-11-15T16:32:44;7.97;;;5.35;;
76256;SDS011;65074;50.436;8.672;2022-11-15T16:35:10;9.88;;;5.53;;
76256;SDS011;65074;50.436;8.672;2022-11-15T16:37:37;8.68;;;5.15;;
76256;SDS011;65074;50.436;8.672;2022-11-15T16:40:05;8.55;;;6.00;;
76256;SDS011;65074;50.436;8.672;2022-11-15T16:42:53;11.35;;;5.68;;
76256;SDS011;65074;50.436;8.672;2022-11-15T16:45:20;9.10;;;5.35;;
76256;SDS011;65074;50.436;8.672;2022-11-15T16:47:47;6.47;;;5.00;;
76256;SDS011;65074;50.436;8.672;2022-11-15T16:50:17;8.07;;;4.78;;
76256;SDS011;65074;50.436;8.672;2022-11-15T16:52:48;8.20;;;5.05;;
76256;SDS011;65074;50.436;8.672;2022-11-15T16:55:17;10.45;;;5.47;;
76256;SDS011;65074;50.436;8.672;2022-11-15T16:57:43;8.98;;;6.32;;
76256;SDS011;65074;50.436;8.672;2022-11-15T17:00:10;9.23;;;6.38;;
76256;SDS011;65074;50.436;8.672;2022-11-15T17:02:36;13.43;;;6.18;;
76256;SDS011;65074;50.436;8.672;2022-11-15T17:05:01;8.77;;;5.68;;
76256;SDS011;65074;50.436;8.672;2022-11-15T17:07:27;7.65;;;4.55;;
76256;SDS011;65074;50.436;8.672;2022-11-15T17:09:52;8.65;;;4.80;;
76256;SDS011;65074;50.436;8.672;2022-11-15T17:12:18;7.57;;;4.03;;
76256;SDS011;65074;50.436;8.672;2022-11-15T17:14:43;6.97;;;4.43;;
76256;SDS011;65074;50.436;8.672;2022-11-15T17:17:10;10.88;;;5.97;;
76256;SDS011;65074;50.436;8.672;2022-11-15T17:19:35;7.50;;;5.32;;
76256;SDS011;65074;50.436;8.672;2022-11-15T17:22:01;8.48;;;5.28;;
76256;SDS011;65074;50.436;8.672;2022-11-15T17:24:26;7.85;;;5.38;;
76256;SDS011;65074;50.436;8.672;2022-11-15T17:26:52;9.48;;;5.05;;
76256;SDS011;65074;50.436;8.672;2022-11-15T17:29:17;8.98;;;5.30;;
76256;SDS011;65074;50.436;8.672;2022-11-15T17:31:42;5.53;;;4.22;;
76256;SDS011;65074;50.436;8.672;2022-11-15T17:34:08;6.97;;;4.97;;
76256;SDS011;65074;50.436;8.672;2022-11-15T17:36:34;9.63;;;5.05;;
76256;SDS011;65074;50.436;8.672;2022-11-15T17:39:00;11.18;;;6.07;;
76256;SDS011;65074;50.436;8.672;2022-11-15T17:41:26;6.78;;;5.03;;
76256;SDS011;65074;50.436;8.672;2022-11-15T17:43:58;9.65;;;6.03;;
76256;SDS011;65074;50.436;8.672;2022-11-15T17:46:27;8.07;;;5.35;;
76256;SDS011;65074;50.436;8.672;2022-11-15T17:48:53;10.13;;;6.47;;
76256;SDS011;65074;50.436;8.672;2022-11-15T17:51:20;11.55;;;7.43;;
76256;SDS011;65074;50.436;8.672;2022-11-15T17:53:47;10.18;;;7.00;;
76256;SDS011;65074;50.436;8.672;2022-11-15T17:56:14;9.27;;;6.30;;
76256;SDS011;65074;50.436;8.672;2022-11-15T17:58:50;10.35;;;7.00;;
76256;SDS011;65074;50.436;8.672;2022-11-15T18:01:20;12.45;;;7.57;;
76256;SDS011;65074;50.436;8.672;2022-11-15T18:03:45;9.50;;;5.72;;
76256;SDS011;65074;50.436;8.672;2022-11-15T18:06:11;8.60;;;5.53;;
76256;SDS011;65074;50.436;8.672;2022-11-15T18:08:38;9.73;;;5.07;;
76256;SDS011;65074;50.436;8.672;2022-11-15T18:11:12;8.18;;;5.18;;
76256;SDS011;65074;50.436;8.672;2022-11-15T18:13:40;10.52;;;5.10;;
76256;SDS011;65074;50.436;8.672;2022-11-15T18:16:11;7.03;;;4.38;;
76256;SDS011;65074;50.436;8.672;2022-11-15T18:18:38;6.32;;;4.80;;
76256;SDS011;65074;50.436;8.672;2022-11-15T18:21:04;7.85;;;4.38;;
76256;SDS011;65074;50.436;8.672;2022-11-15T18:23:57;7.40;;;4.75;;
76256;SDS011;65074;50.436;8.672;2022-11-15T18:26:25;9.27;;;4.70;;